Time;durP1;ratioP1;P1;durP2;ratioP2;P2;SDS_P1;SDS_P2;PMS_P1;PMS_P2;Temp;Humidity;BMP_temperature;BMP_pressure;BME280_temperature;BME280_humidity;BME280_pressure;Samples;Min_cycle;Max_cycle;Signal;HPM_P1;HPM_P2
2023/05/17 00:00:32;;;;;;;1.57;0.43;;;;;12.20;96166.00;;;;5099201;28;20195;-67
2023/05/17 00:03:21;;;;;;;0.57;0.40;;;;;12.20;96163.00;;;;5083133;28;20200;-67
2023/05/17 00:06:12;;;;;;;0.40;0.40;;;;;12.20;96172.00;;;;5078101;28;20226;-67
2023/05/17 00:09:01;;;;;;;0.63;0.50;;;;;12.20;96171.00;;;;5082805;28;20230;-67
2023/05/17 00:11:50;;;;;;;3.20;0.43;;;;;12.20;96168.00;;;;5082885;28;20582;-67
2023/05/17 00:14:39;;;;;;;1.73;0.50;;;;;12.10;96175.00;;;;5086313;28;20207;-67
2023/05/17 00:17:29;;;;;;;0.30;0.30;;;;;12.10;96176.00;;;;5081751;28;20215;-67
2023/05/17 00:20:18;;;;;;;0.37;0.30;;;;;12.20;96164.00;;;;5084462;28;20203;-67
2023/05/17 00:23:08;;;;;;;0.63;0.30;;;;;12.30;96166.00;;;;5084036;28;20206;-67
2023/05/17 00:25:57;;;;;;;0.33;0.33;;;;;12.20;96172.00;;;;5083953;28;20254;-67
2023/05/17 00:28:46;;;;;;;0.20;0.20;;;;;12.20;96168.00;;;;5087169;28;20215;-67
2023/05/17 00:31:35;;;;;;;0.20;0.20;;;;;12.20;96162.00;;;;5087291;28;20203;-67
2023/05/17 00:34:24;;;;;;;0.40;0.40;;;;;12.20;96167.00;;;;5084493;28;20249;-67
2023/05/17 00:37:13;;;;;;;0.33;0.30;;;;;12.20;96161.00;;;;5087905;28;20227;-67
2023/05/17 00:40:05;;;;;;;0.30;0.30;;;;;12.20;96161.00;;;;5081909;28;20202;-67
2023/05/17 00:42:54;;;;;;;0.50;0.50;;;;;12.20;96166.00;;;;5080619;28;20195;-67
2023/05/17 00:45:43;;;;;;;2.73;0.30;;;;;12.20;96167.00;;;;5080664;28;20218;-67
2023/05/17 00:48:32;;;;;;;1.33;0.30;;;;;12.20;96182.00;;;;5083583;28;20235;-67
2023/05/17 00:51:21;;;;;;;0.23;0.23;;;;;12.20;96170.00;;;;5097534;28;20199;-67
2023/05/17 00:54:11;;;;;;;0.30;0.30;;;;;12.20;96168.00;;;;5088590;28;20618;-67
2023/05/17 00:57:01;;;;;;;0.30;0.30;;;;;12.30;96157.00;;;;5089721;28;20226;-67
2023/05/17 00:59:52;;;;;;;2.00;0.67;;;;;12.20;96162.00;;;;5094395;28;20203;-67
2023/05/17 01:02:43;;;;;;;0.70;0.50;;;;;12.20;96158.00;;;;5078239;28;20195;-67
2023/05/17 01:05:32;;;;;;;2.47;0.57;;;;;12.30;96161.00;;;;5085952;28;20223;-67
2023/05/17 01:08:21;;;;;;;2.70;0.50;;;;;12.20;96160.00;;;;5089691;28;20226;-67
2023/05/17 01:11:18;;;;;;;0.30;0.30;;;;;12.20;96167.00;;;;5089738;28;20203;-67
2023/05/17 01:14:19;;;;;;;0.83;0.30;;;;;12.20;96163.00;;;;5084471;28;20207;-67
2023/05/17 01:17:17;;;;;;;3.90;0.40;;;;;12.20;96167.00;;;;5084468;28;20215;-67
2023/05/17 01:20:11;;;;;;;0.60;0.30;;;;;12.30;96163.00;;;;5086473;28;20195;-67
2023/05/17 01:23:14;;;;;;;0.20;0.20;;;;;12.20;96161.00;;;;5089850;28;20207;-67
2023/05/17 01:26:08;;;;;;;0.20;0.20;;;;;12.20;96157.00;;;;5088483;28;20223;-67
2023/05/17 01:29:00;;;;;;;0.37;0.30;;;;;12.20;96160.00;;;;5078296;28;20247;-67
2023/05/17 01:31:49;;;;;;;0.50;0.30;;;;;12.20;96155.00;;;;5085829;28;20218;-67
2023/05/17 01:34:38;;;;;;;0.50;0.30;;;;;12.20;96157.00;;;;5091488;28;20198;-67
2023/05/17 01:37:27;;;;;;;0.20;0.20;;;;;12.20;96147.00;;;;5092346;28;20226;-67
2023/05/17 01:40:18;;;;;;;0.20;0.20;;;;;12.20;96160.00;;;;5087227;28;20217;-67
2023/05/17 01:43:14;;;;;;;6.53;0.40;;;;;12.10;96156.00;;;;5084627;28;20205;-67
2023/05/17 01:46:11;;;;;;;0.60;0.30;;;;;12.00;96161.00;;;;5086977;28;20226;-67
2023/05/17 01:49:06;;;;;;;0.20;0.20;;;;;12.10;96162.00;;;;5082087;28;20603;-67
2023/05/17 01:52:00;;;;;;;0.50;0.30;;;;;12.10;96162.00;;;;5093121;28;20225;-67
2023/05/17 01:55:07;;;;;;;0.20;0.20;;;;;12.00;96152.00;;;;5078768;28;20199;-67
2023/05/17 01:57:56;;;;;;;0.63;0.40;;;;;12.10;96159.00;;;;5079945;28;20226;-67
2023/05/17 02:00:47;;;;;;;2.00;0.37;;;;;12.20;96152.00;;;;5080311;28;20199;-67
2023/05/17 02:03:37;;;;;;;1.33;0.30;;;;;12.20;96168.00;;;;5083785;28;20201;-67
2023/05/17 02:06:27;;;;;;;0.60;0.33;;;;;12.20;96169.00;;;;5083459;28;20608;-67
2023/05/17 02:09:16;;;;;;;0.37;0.37;;;;;12.20;96178.00;;;;5084770;28;20211;-67
2023/05/17 02:12:05;;;;;;;1.80;1.70;;;;;12.10;96173.00;;;;5086298;28;20199;-67
2023/05/17 02:14:54;;;;;;;1.30;0.47;;;;;12.20;96162.00;;;;5081888;28;20200;-66
2023/05/17 02:17:44;;;;;;;0.53;0.30;;;;;12.30;96176.00;;;;5083076;28;20230;-68
2023/05/17 02:20:35;;;;;;;0.30;0.30;;;;;12.20;96170.00;;;;5090287;28;20211;-67
2023/05/17 02:23:24;;;;;;;0.73;0.23;;;;;12.20;96182.00;;;;5089288;28;20610;-67
2023/05/17 02:26:13;;;;;;;0.40;0.40;;;;;12.20;96171.00;;;;5084590;28;20695;-67
2023/05/17 02:29:02;;;;;;;0.30;0.30;;;;;12.10;96162.00;;;;5086205;28;20217;-67
2023/05/17 02:31:51;;;;;;;0.50;0.30;;;;;12.30;96165.00;;;;5077605;28;20207;-67
2023/05/17 02:34:40;;;;;;;2.30;0.30;;;;;12.40;96181.00;;;;5090644;28;20206;-67
2023/05/17 02:37:31;;;;;;;0.27;0.27;;;;;12.40;96180.00;;;;5087218;28;20230;-67
2023/05/17 02:40:20;;;;;;;1.60;0.40;;;;;12.50;96179.00;;;;5084254;28;20275;-67
2023/05/17 02:43:09;;;;;;;0.30;0.30;;;;;12.50;96182.00;;;;5086564;28;20210;-67
2023/05/17 02:45:58;;;;;;;0.93;0.40;;;;;12.60;96191.00;;;;5085111;28;20227;-67
2023/05/17 02:48:47;;;;;;;0.87;0.20;;;;;12.60;96188.00;;;;5079984;28;20220;-67
2023/05/17 02:51:36;;;;;;;0.20;0.20;;;;;12.60;96200.00;;;;5091117;28;20210;-67
2023/05/17 02:54:26;;;;;;;0.40;0.30;;;;;12.60;96201.00;;;;5089702;28;20210;-67
2023/05/17 02:57:15;;;;;;;0.23;0.23;;;;;12.50;96212.00;;;;5079700;28;20220;-67
2023/05/17 03:00:07;;;;;;;0.30;0.30;;;;;12.60;96219.00;;;;5082176;28;20269;-67
2023/05/17 03:02:56;;;;;;;0.20;0.20;;;;;12.50;96216.00;;;;5091191;28;20596;-67
2023/05/17 03:05:45;;;;;;;0.20;0.20;;;;;12.60;96219.00;;;;5091042;28;20229;-67
2023/05/17 03:08:34;;;;;;;0.40;0.30;;;;;12.60;96219.00;;;;5095986;28;20214;-67
2023/05/17 03:11:25;;;;;;;0.33;0.20;;;;;12.60;96214.00;;;;5089659;28;20208;-67
2023/05/17 03:14:16;;;;;;;0.80;0.37;;;;;12.60;96213.00;;;;5092926;28;20206;-67
2023/05/17 03:17:06;;;;;;;1.20;0.23;;;;;12.40;96204.00;;;;5105078;28;20939;-67
2023/05/17 03:19:55;;;;;;;1.00;0.50;;;;;12.60;96210.00;;;;5098747;28;20224;-67
2023/05/17 03:22:44;;;;;;;0.20;0.20;;;;;12.60;96203.00;;;;5088345;28;20258;-67
2023/05/17 03:25:33;;;;;;;1.80;0.30;;;;;12.60;96202.00;;;;5099250;28;20673;-67
2023/05/17 03:28:24;;;;;;;5.60;0.30;;;;;12.60;96219.00;;;;5094929;28;20586;-67
2023/05/17 03:31:13;;;;;;;0.60;0.40;;;;;12.60;96217.00;;;;5080100;28;20211;-68
2023/05/17 03:34:02;;;;;;;0.50;0.23;;;;;12.70;96211.00;;;;5101126;28;20210;-67
2023/05/17 03:36:51;;;;;;;0.60;0.20;;;;;12.70;96214.00;;;;5082654;28;20214;-67
2023/05/17 03:39:40;;;;;;;11.33;1.63;;;;;12.70;96218.00;;;;5098975;28;20206;-68
2023/05/17 03:42:29;;;;;;;1.23;0.53;;;;;12.60;96229.00;;;;5094532;28;20202;-67
2023/05/17 03:45:20;;;;;;;3.30;0.30;;;;;12.80;96239.00;;;;5091766;28;20586;-67
2023/05/17 03:48:09;;;;;;;0.20;0.20;;;;;13.00;96238.00;;;;5102692;28;20874;-67
2023/05/17 03:50:58;;;;;;;0.20;0.20;;;;;13.00;96241.00;;;;5083614;28;20225;-67
2023/05/17 03:53:47;;;;;;;0.83;0.70;;;;;13.00;96237.00;;;;5093832;28;20206;-67
2023/05/17 03:56:36;;;;;;;0.53;0.53;;;;;13.10;96249.00;;;;5102596;28;20198;-67
2023/05/17 03:59:25;;;;;;;0.30;0.30;;;;;12.90;96263.00;;;;5102130;28;20219;-67
2023/05/17 04:02:17;;;;;;;0.20;0.20;;;;;13.00;96274.00;;;;5095842;28;20203;-67
2023/05/17 04:05:06;;;;;;;0.23;0.23;;;;;13.00;96276.00;;;;5092898;28;20203;-67
2023/05/17 04:07:56;;;;;;;1.73;0.40;;;;;13.10;96281.00;;;;5093028;28;20230;-67
2023/05/17 04:10:45;;;;;;;10.73;0.90;;;;;13.10;96287.00;;;;5075373;28;20195;-67
2023/05/17 04:13:35;;;;;;;0.40;0.40;;;;;13.10;96300.00;;;;5084412;28;20203;-67
2023/05/17 04:16:24;;;;;;;1.40;0.43;;;;;13.00;96295.00;;;;5089336;28;20196;-67
2023/05/17 04:19:14;;;;;;;0.50;0.50;;;;;13.10;96314.00;;;;5089347;28;20583;-67
2023/05/17 04:22:03;;;;;;;0.20;0.20;;;;;13.10;96315.00;;;;5097446;28;20509;-67
2023/05/17 04:24:52;;;;;;;0.30;0.30;;;;;12.90;96306.00;;;;5089326;28;20705;-67
2023/05/17 04:27:42;;;;;;;1.47;0.20;;;;;13.10;96317.00;;;;5089370;28;20238;-67
2023/05/17 04:30:31;;;;;;;0.30;0.30;;;;;12.90;96308.00;;;;5092667;28;20724;-66
2023/05/17 04:33:20;;;;;;;0.20;0.20;;;;;13.20;96319.00;;;;5095620;28;20224;-66
2023/05/17 04:36:11;;;;;;;0.30;0.20;;;;;13.30;96331.00;;;;5085619;28;20570;-68
2023/05/17 04:39:02;;;;;;;0.97;0.43;;;;;13.30;96326.00;;;;5104926;28;20203;-66
2023/05/17 04:41:51;;;;;;;0.50;0.50;;;;;13.40;96326.00;;;;5080432;28;20200;-66
2023/05/17 04:44:40;;;;;;;2.47;0.37;;;;;13.40;96326.00;;;;5077114;28;20206;-66
2023/05/17 04:47:29;;;;;;;4.77;0.40;;;;;13.40;96342.00;;;;5086730;28;20226;-66
2023/05/17 04:50:18;;;;;;;0.30;0.30;;;;;13.40;96342.00;;;;5100733;28;20206;-67
2023/05/17 04:53:09;;;;;;;0.30;0.20;;;;;13.20;96341.00;;;;5087210;28;20204;-66
2023/05/17 04:55:58;;;;;;;0.27;0.27;;;;;13.50;96343.00;;;;5087379;28;20206;-66
2023/05/17 04:58:47;;;;;;;0.30;0.30;;;;;13.60;96344.00;;;;5084690;28;20728;-66
2023/05/17 05:01:37;;;;;;;0.63;0.50;;;;;13.50;96357.00;;;;5078298;28;20203;-66
2023/05/17 05:04:26;;;;;;;0.40;0.30;;;;;13.40;96356.00;;;;5074439;28;20208;-67
2023/05/17 05:07:15;;;;;;;1.03;0.63;;;;;13.70;96368.00;;;;5075902;28;20227;-69
2023/05/17 05:10:07;;;;;;;0.33;0.27;;;;;13.70;96361.00;;;;5075951;28;20603;-68
2023/05/17 05:12:56;;;;;;;0.30;0.30;;;;;13.90;96365.00;;;;5090709;28;20191;-68
2023/05/17 05:15:46;;;;;;;0.60;0.47;;;;;14.00;96370.00;;;;5093576;28;20199;-67
2023/05/17 05:18:35;;;;;;;0.33;0.33;;;;;13.80;96356.00;;;;5087787;28;20211;-67
2023/05/17 05:21:24;;;;;;;0.30;0.30;;;;;13.80;96349.00;;;;5093077;28;20210;-69
2023/05/17 05:24:13;;;;;;;0.40;0.40;;;;;13.70;96333.00;;;;5090204;28;20596;-64
2023/05/17 05:27:04;;;;;;;0.93;0.67;;;;;14.10;96333.00;;;;5080720;28;20220;-65
2023/05/17 05:29:56;;;;;;;0.20;0.20;;;;;14.20;96332.00;;;;5068683;28;20196;-65
2023/05/17 05:32:45;;;;;;;1.23;0.70;;;;;14.30;96337.00;;;;5075002;28;20204;-67
2023/05/17 05:35:34;;;;;;;0.30;0.30;;;;;14.40;96351.00;;;;5077572;28;20693;-64
2023/05/17 05:38:23;;;;;;;0.47;0.47;;;;;14.60;96346.00;;;;5077992;28;20222;-67
2023/05/17 05:41:12;;;;;;;0.30;0.30;;;;;14.60;96345.00;;;;5078837;28;20202;-65
2023/05/17 05:44:02;;;;;;;0.40;0.40;;;;;14.70;96344.00;;;;5082040;28;20671;-67
2023/05/17 05:46:51;;;;;;;0.60;0.40;;;;;14.90;96359.00;;;;5082060;28;20573;-65
2023/05/17 05:49:40;;;;;;;0.47;0.37;;;;;15.10;96354.00;;;;5074865;28;20231;-65
2023/05/17 05:52:30;;;;;;;0.77;0.50;;;;;15.40;96369.00;;;;5081990;28;20203;-65
2023/05/17 05:55:19;;;;;;;0.30;0.30;;;;;15.40;96373.00;;;;5078584;28;20207;-65
2023/05/17 05:58:08;;;;;;;1.13;0.33;;;;;14.90;96373.00;;;;5084478;28;20706;-68
2023/05/17 06:00:58;;;;;;;0.57;0.40;;;;;15.40;96380.00;;;;5073035;28;20215;-68
2023/05/17 06:03:47;;;;;;;0.50;0.30;;;;;15.40;96385.00;;;;5081162;28;20198;-68
2023/05/17 06:06:36;;;;;;;0.30;0.30;;;;;15.00;96395.00;;;;5077731;28;20675;-69
2023/05/17 06:09:26;;;;;;;0.50;0.50;;;;;15.20;96376.00;;;;5072607;28;20204;-68
2023/05/17 06:12:16;;;;;;;0.20;0.20;;;;;15.20;96378.00;;;;5076768;28;20206;-68
2023/05/17 06:15:06;;;;;;;4.33;0.40;;;;;15.10;96401.00;;;;5079347;28;20202;-72
2023/05/17 06:17:57;;;;;;;0.30;0.30;;;;;15.10;96399.00;;;;5086834;28;20214;-71
2023/05/17 06:20:47;;;;;;;3.20;0.20;;;;;15.20;96406.00;;;;5087291;28;20206;-71
2023/05/17 06:23:36;;;;;;;0.30;0.30;;;;;15.10;96413.00;;;;5091010;28;20207;-70
2023/05/17 06:26:26;;;;;;;0.90;0.40;;;;;14.50;96409.00;;;;5091219;28;20706;-66
2023/05/17 06:29:15;;;;;;;0.27;0.20;;;;;15.20;96415.00;;;;5073425;28;20623;-68
2023/05/17 06:32:05;;;;;;;0.73;0.73;;;;;15.20;96427.00;;;;5077717;28;20196;-68
2023/05/17 06:34:56;;;;;;;0.20;0.20;;;;;14.90;96440.00;;;;5075328;28;20215;-68
2023/05/17 06:37:45;;;;;;;0.30;0.30;;;;;15.20;96446.00;;;;5073013;28;20231;-68
2023/05/17 06:40:34;;;;;;;0.30;0.30;;;;;15.20;96465.00;;;;5079144;28;20200;-67
2023/05/17 06:43:23;;;;;;;0.80;0.40;;;;;14.90;96456.00;;;;5071290;28;20206;-67
2023/05/17 06:46:12;;;;;;;0.20;0.20;;;;;15.10;96469.00;;;;5074076;28;20479;-67
2023/05/17 06:49:01;;;;;;;0.20;0.20;;;;;15.10;96471.00;;;;5077351;28;20235;-68
2023/05/17 06:51:54;;;;;;;1.70;0.20;;;;;14.80;96467.00;;;;5081353;28;20733;-68
2023/05/17 06:54:43;;;;;;;0.30;0.20;;;;;15.10;96480.00;;;;5078443;28;20203;-68
2023/05/17 06:57:32;;;;;;;0.93;0.20;;;;;15.20;96474.00;;;;5077116;28;20219;-68
2023/05/17 07:00:21;;;;;;;3.70;0.40;;;;;15.10;96475.00;;;;5075341;28;20291;-68
2023/05/17 07:03:10;;;;;;;2.93;0.20;;;;;15.00;96483.00;;;;5079534;28;20204;-66
2023/05/17 07:06:00;;;;;;;0.63;0.20;;;;;15.20;96475.00;;;;5079814;28;20609;-66
2023/05/17 07:08:50;;;;;;;1.23;0.20;;;;;15.50;96489.00;;;;5073593;28;20304;-66
2023/05/17 07:11:39;;;;;;;0.57;0.50;;;;;15.60;96490.00;;;;5077873;28;20283;-66
2023/05/17 07:14:29;;;;;;;0.30;0.30;;;;;15.50;96501.00;;;;5076546;28;20223;-66
2023/05/17 07:17:18;;;;;;;0.30;0.30;;;;;15.70;96497.00;;;;5073136;28;20227;-66
2023/05/17 07:20:08;;;;;;;0.47;0.30;;;;;15.80;96502.00;;;;5069005;28;20211;-66
2023/05/17 07:22:57;;;;;;;2.67;0.23;;;;;15.70;96498.00;;;;5078400;28;20203;-68
2023/05/17 07:25:48;;;;;;;0.30;0.30;;;;;15.50;96500.00;;;;5075515;28;20204;-66
2023/05/17 07:28:37;;;;;;;0.30;0.20;;;;;16.00;96502.00;;;;5069482;28;20235;-67
2023/05/17 07:31:26;;;;;;;0.30;0.30;;;;;16.30;96516.00;;;;5077827;28;20658;-66
2023/05/17 07:34:15;;;;;;;0.20;0.20;;;;;16.20;96520.00;;;;5084565;28;20204;-67
2023/05/17 07:37:04;;;;;;;0.40;0.20;;;;;15.70;96499.00;;;;5080395;28;20228;-65
2023/05/17 07:39:53;;;;;;;0.20;0.20;;;;;16.00;96513.00;;;;5081595;28;20204;-65
2023/05/17 07:42:44;;;;;;;0.50;0.40;;;;;16.00;96506.00;;;;5073628;28;20574;-65
2023/05/17 07:45:33;;;;;;;1.60;0.50;;;;;15.80;96529.00;;;;5074737;28;20200;-65
2023/05/17 07:48:22;;;;;;;0.50;0.50;;;;;15.30;96522.00;;;;5077758;28;20592;-67
2023/05/17 07:51:11;;;;;;;0.20;0.20;;;;;15.10;96526.00;;;;5077476;28;20282;-67
2023/05/17 07:54:02;;;;;;;0.20;0.20;;;;;15.50;96530.00;;;;5070226;28;20204;-67
2023/05/17 07:56:52;;;;;;;0.30;0.20;;;;;15.60;96530.00;;;;5079187;28;20746;-66
2023/05/17 07:59:42;;;;;;;1.13;0.40;;;;;15.50;96539.00;;;;5077517;28;20211;-67
2023/05/17 08:02:31;;;;;;;0.43;0.30;;;;;15.70;96533.00;;;;5069572;28;20195;-67
2023/05/17 08:05:20;;;;;;;0.27;0.27;;;;;15.40;96530.00;;;;5072863;28;20196;-66
2023/05/17 08:08:10;;;;;;;0.20;0.20;;;;;15.30;96540.00;;;;5072549;28;20226;-68
2023/05/17 08:10:59;;;;;;;0.30;0.30;;;;;15.20;96545.00;;;;5083501;28;20577;-66
2023/05/17 08:13:48;;;;;;;0.30;0.30;;;;;15.70;96554.00;;;;5075029;28;20204;-66
2023/05/17 08:16:38;;;;;;;0.40;0.30;;;;;15.60;96552.00;;;;5078764;28;20218;-66
2023/05/17 08:19:27;;;;;;;1.43;0.30;;;;;15.00;96543.00;;;;5075694;28;20199;-67
2023/05/17 08:22:19;;;;;;;0.30;0.30;;;;;15.70;96552.00;;;;5074335;28;20687;-67
2023/05/17 08:25:08;;;;;;;0.27;0.20;;;;;15.90;96557.00;;;;5075573;28;20204;-67
2023/05/17 08:27:57;;;;;;;1.90;0.20;;;;;15.60;96562.00;;;;5068410;28;20228;-71
2023/05/17 08:30:47;;;;;;;0.20;0.20;;;;;15.80;96565.00;;;;5082588;28;20695;-67
2023/05/17 08:33:37;;;;;;;0.40;0.20;;;;;16.00;96563.00;;;;5075116;28;20206;-67
2023/05/17 08:36:27;;;;;;;0.30;0.30;;;;;15.30;96571.00;;;;5085595;28;20206;-67
2023/05/17 08:39:16;;;;;;;0.70;0.20;;;;;15.70;96564.00;;;;5074821;28;20199;-66
2023/05/17 08:42:08;;;;;;;0.20;0.20;;;;;15.90;96565.00;;;;5071701;28;20203;-70
2023/05/17 08:44:57;;;;;;;0.20;0.20;;;;;15.70;96575.00;;;;5075004;28;20207;-68
2023/05/17 08:47:47;;;;;;;0.20;0.20;;;;;15.30;96567.00;;;;5072565;28;20219;-66
2023/05/17 08:50:38;;;;;;;0.30;0.30;;;;;14.90;96565.00;;;;5077934;28;21007;-66
2023/05/17 08:53:27;;;;;;;0.37;0.37;;;;;15.50;96585.00;;;;5074622;28;20709;-67
2023/05/17 08:56:17;;;;;;;0.30;0.30;;;;;15.40;96588.00;;;;5080333;28;20207;-67
2023/05/17 08:59:07;;;;;;;0.30;0.30;;;;;15.70;96585.00;;;;5082543;28;20207;-69
2023/05/17 09:01:56;;;;;;;0.30;0.30;;;;;15.10;96595.00;;;;5085732;28;20199;-67
2023/05/17 09:04:45;;;;;;;0.30;0.20;;;;;14.70;96607.00;;;;5084241;28;20675;-66
2023/05/17 09:07:36;;;;;;;0.27;0.20;;;;;14.30;96590.00;;;;5065976;28;20230;-72
2023/05/17 09:10:25;;;;;;;0.30;0.30;;;;;15.10;96596.00;;;;5080698;28;20249;-69
2023/05/17 09:13:14;;;;;;;0.30;0.30;;;;;15.20;96596.00;;;;5080455;28;20276;-64
2023/05/17 09:16:04;;;;;;;0.20;0.10;;;;;14.00;96600.00;;;;5108674;28;20198;-73
2023/05/17 09:18:57;;;;;;;0.30;0.20;;;;;14.30;96595.00;;;;5086629;28;20566;-72
2023/05/17 09:21:49;;;;;;;0.30;0.20;;;;;15.00;96592.00;;;;5079161;28;20238;-65
2023/05/17 09:24:40;;;;;;;0.83;0.40;;;;;15.10;96600.00;;;;5079187;28;20562;-66
2023/05/17 09:27:31;;;;;;;0.37;0.37;;;;;15.20;96599.00;;;;5079483;28;20234;-68
2023/05/17 09:30:26;;;;;;;0.40;0.23;;;;;15.00;96615.00;;;;5077310;28;20227;-67
2023/05/17 09:33:15;;;;;;;1.40;0.27;;;;;14.60;96602.00;;;;5081909;28;20199;-62
2023/05/17 09:36:17;;;;;;;0.20;0.20;;;;;15.10;96594.00;;;;5090116;28;20211;-66
2023/05/17 09:39:10;;;;;;;1.27;0.40;;;;;15.10;96601.00;;;;5085551;28;20218;-66
2023/05/17 09:42:01;;;;;;;1.43;1.33;;;;;15.10;96601.00;;;;5083617;28;20574;-67
2023/05/17 09:44:53;;;;;;;0.47;0.30;;;;;14.60;96604.00;;;;5088193;28;20207;-64
2023/05/17 09:47:42;;;;;;;2.80;0.40;;;;;14.40;96590.00;;;;5081572;28;20599;-66
2023/05/17 09:50:34;;;;;;;0.57;0.47;;;;;14.70;96586.00;;;;5094245;28;20214;-70
2023/05/17 09:53:26;;;;;;;0.27;0.27;;;;;15.30;96600.00;;;;5087212;28;20210;-69
2023/05/17 09:56:18;;;;;;;1.90;0.37;;;;;15.00;96607.00;;;;5098692;28;20202;-66
2023/05/17 09:59:14;;;;;;;0.20;0.20;;;;;14.90;96611.00;;;;5091907;28;20214;-69
2023/05/17 10:02:05;;;;;;;0.20;0.20;;;;;15.00;96618.00;;;;5086831;28;20211;-66
2023/05/17 10:04:58;;;;;;;1.33;0.53;;;;;15.00;96588.00;;;;5083328;28;20198;-71
2023/05/17 10:07:48;;;;;;;0.20;0.20;;;;;15.20;96609.00;;;;5083493;28;20216;-69
2023/05/17 10:10:38;;;;;;;0.83;0.50;;;;;14.70;96610.00;;;;5092929;28;20227;-73
2023/05/17 10:13:34;;;;;;;0.47;0.30;;;;;14.60;96603.00;;;;5086946;28;20285;-66
2023/05/17 10:16:25;;;;;;;0.20;0.20;;;;;15.20;96607.00;;;;5085311;28;20422;-66
2023/05/17 10:19:15;;;;;;;0.20;0.20;;;;;15.10;96622.00;;;;5079021;28;20196;-66
2023/05/17 10:22:04;;;;;;;0.20;0.20;;;;;15.20;96620.00;;;;5075938;28;20234;-66
2023/05/17 10:25:08;;;;;;;0.30;0.30;;;;;15.10;96635.00;;;;5085471;28;20198;-68
2023/05/17 10:27:58;;;;;;;0.30;0.20;;;;;15.00;96637.00;;;;5078408;28;20235;-72
2023/05/17 10:30:49;;;;;;;0.30;0.30;;;;;15.20;96627.00;;;;5082882;28;20247;-71
2023/05/17 10:33:41;;;;;;;0.27;0.27;;;;;15.00;96639.00;;;;5079448;28;20602;-69
2023/05/17 10:36:31;;;;;;;0.20;0.20;;;;;15.10;96635.00;;;;5088605;28;20212;-69
2023/05/17 10:39:21;;;;;;;0.20;0.20;;;;;14.80;96633.00;;;;5093239;28;20203;-69
2023/05/17 10:42:12;;;;;;;0.40;0.40;;;;;15.20;96636.00;;;;5092851;28;20211;-67
2023/05/17 10:45:03;;;;;;;0.30;0.20;;;;;15.50;96638.00;;;;5087200;28;20219;-68
2023/05/17 10:47:52;;;;;;;0.50;0.50;;;;;15.20;96637.00;;;;5089375;28;20226;-65
2023/05/17 10:50:46;;;;;;;0.40;0.27;;;;;15.70;96649.00;;;;5088052;28;20587;-65
2023/05/17 10:54:04;;;;;;;0.30;0.30;;;;;15.00;96648.00;;;;5075686;28;20601;-64
2023/05/17 10:56:54;;;;;;;1.47;0.37;;;;;15.50;96647.00;;;;5077022;28;20614;-64
2023/05/17 10:59:57;;;;;;;0.20;0.20;;;;;15.20;96650.00;;;;5080755;28;20310;-65
2023/05/17 11:02:47;;;;;;;0.30;0.30;;;;;15.50;96662.00;;;;5084456;28;20210;-65
2023/05/17 11:05:37;;;;;;;0.20;0.20;;;;;15.50;96671.00;;;;5079357;28;20206;-67
2023/05/17 11:08:27;;;;;;;2.30;0.37;;;;;14.90;96672.00;;;;5087079;28;20605;-67
2023/05/17 11:11:18;;;;;;;0.20;0.20;;;;;14.90;96684.00;;;;5084091;28;20222;-67
2023/05/17 11:14:11;;;;;;;0.30;0.30;;;;;14.70;96677.00;;;;5073369;28;20698;-67
2023/05/17 11:17:00;;;;;;;0.50;0.40;;;;;14.90;96690.00;;;;5075547;28;20228;-69
2023/05/17 11:20:08;;;;;;;0.20;0.20;;;;;15.00;96698.00;;;;5090998;28;20249;-66
2023/05/17 11:23:00;;;;;;;0.43;0.43;;;;;15.30;96704.00;;;;5082979;28;20215;-67
2023/05/17 11:25:51;;;;;;;0.20;0.20;;;;;14.90;96689.00;;;;5083678;28;20195;-70
2023/05/17 11:28:41;;;;;;;0.73;0.33;;;;;14.90;96699.00;;;;5082218;28;20255;-71
2023/05/17 11:31:32;;;;;;;0.30;0.30;;;;;15.40;96712.00;;;;5101449;28;20614;-68
2023/05/17 11:34:24;;;;;;;0.30;0.30;;;;;14.70;96715.00;;;;5084821;28;20203;-68
2023/05/17 11:37:26;;;;;;;0.57;0.40;;;;;15.40;96722.00;;;;5089213;28;20218;-70
2023/05/17 11:40:25;;;;;;;1.80;0.40;;;;;15.20;96722.00;;;;5103507;28;20697;-71
2023/05/17 11:43:17;;;;;;;0.27;0.27;;;;;15.60;96720.00;;;;5096202;28;20206;-67
2023/05/17 11:46:07;;;;;;;0.20;0.20;;;;;15.20;96733.00;;;;5073430;28;20199;-69
2023/05/17 11:48:56;;;;;;;0.57;0.23;;;;;15.00;96728.00;;;;5103493;28;20210;-70
2023/05/17 11:51:47;;;;;;;0.30;0.30;;;;;15.00;96735.00;;;;5089792;28;20218;-70
2023/05/17 11:54:37;;;;;;;0.40;0.40;;;;;15.20;96733.00;;;;5094999;28;20203;-69
2023/05/17 11:57:31;;;;;;;0.30;0.23;;;;;16.10;96745.00;;;;5089985;28;20219;-71
2023/05/17 12:00:26;;;;;;;0.40;0.37;;;;;15.80;96757.00;;;;5084481;28;20230;-67
2023/05/17 12:03:20;;;;;;;3.47;0.33;;;;;15.10;96749.00;;;;5079311;28;20203;-65
2023/05/17 12:06:11;;;;;;;0.40;0.40;;;;;16.20;96765.00;;;;5094530;28;20202;-69
2023/05/17 12:09:01;;;;;;;0.30;0.30;;;;;15.40;96765.00;;;;5080979;28;20199;-71
2023/05/17 12:11:51;;;;;;;1.80;0.40;;;;;16.10;96773.00;;;;5082702;28;20223;-69
2023/05/17 12:14:46;;;;;;;0.30;0.30;;;;;15.70;96774.00;;;;5080033;28;20550;-69
2023/05/17 12:17:40;;;;;;;0.57;0.30;;;;;15.50;96786.00;;;;5075442;28;20223;-72
2023/05/17 12:20:31;;;;;;;1.10;0.70;;;;;15.60;96781.00;;;;5077217;28;20204;-73
2023/05/17 12:23:28;;;;;;;0.20;0.20;;;;;16.00;96792.00;;;;5085360;28;20207;-69
2023/05/17 12:26:18;;;;;;;0.20;0.20;;;;;15.70;96801.00;;;;5084181;28;20199;-70
2023/05/17 12:29:07;;;;;;;0.50;0.20;;;;;15.40;96816.00;;;;5087981;28;21083;-68
2023/05/17 12:31:57;;;;;;;1.73;0.30;;;;;15.60;96807.00;;;;5080879;28;20227;-69
2023/05/17 12:34:49;;;;;;;0.30;0.30;;;;;15.50;96814.00;;;;5082536;28;20203;-65
2023/05/17 12:37:38;;;;;;;0.30;0.30;;;;;15.20;96818.00;;;;5079751;28;20214;-67
2023/05/17 12:40:27;;;;;;;0.50;0.30;;;;;15.20;96827.00;;;;5086937;28;20196;-67
2023/05/17 12:43:17;;;;;;;0.40;0.40;;;;;15.60;96842.00;;;;5086895;28;20260;-70
2023/05/17 12:46:08;;;;;;;0.90;0.43;;;;;15.00;96853.00;;;;5083853;28;20203;-66
2023/05/17 12:49:05;;;;;;;0.60;0.60;;;;;15.30;96860.00;;;;5090640;28;20211;-70
2023/05/17 12:51:55;;;;;;;0.40;0.30;;;;;15.60;96869.00;;;;5096705;28;20219;-70
2023/05/17 12:54:45;;;;;;;1.27;0.93;;;;;15.40;96872.00;;;;5091108;28;20661;-72
2023/05/17 12:57:34;;;;;;;0.50;0.30;;;;;15.10;96871.00;;;;5083532;28;20219;-68
2023/05/17 13:00:24;;;;;;;0.70;0.47;;;;;15.00;96872.00;;;;5089635;28;20221;-71
2023/05/17 13:03:13;;;;;;;0.23;0.23;;;;;14.50;96880.00;;;;5093817;28;20206;-67
2023/05/17 13:06:04;;;;;;;0.63;0.20;;;;;14.70;96890.00;;;;5075058;28;20616;-70
2023/05/17 13:09:00;;;;;;;2.37;1.07;;;;;14.70;96877.00;;;;5085700;28;20290;-71
2023/05/17 13:11:53;;;;;;;0.57;0.30;;;;;14.40;96887.00;;;;5080290;28;20719;-71
2023/05/17 13:14:43;;;;;;;0.53;0.33;;;;;14.70;96883.00;;;;5089623;28;20199;-70
2023/05/17 13:17:39;;;;;;;0.30;0.30;;;;;14.70;96884.00;;;;5081202;28;20219;-70
2023/05/17 13:20:28;;;;;;;0.30;0.30;;;;;14.30;96884.00;;;;5084274;28;20209;-68
2023/05/17 13:23:17;;;;;;;10.93;5.30;;;;;14.40;96889.00;;;;5090499;28;20203;-68
2023/05/17 13:26:08;;;;;;;2.00;0.93;;;;;14.60;96893.00;;;;5085630;28;20202;-69
2023/05/17 13:28:57;;;;;;;1.07;0.63;;;;;14.10;96887.00;;;;5086261;28;20207;-69
2023/05/17 13:31:46;;;;;;;0.40;0.40;;;;;14.40;96889.00;;;;5085420;28;20223;-69
2023/05/17 13:34:35;;;;;;;8.07;3.10;;;;;14.70;96895.00;;;;5084789;28;20545;-68
2023/05/17 13:37:25;;;;;;;0.43;0.43;;;;;14.40;96892.00;;;;5079502;28;20234;-67
2023/05/17 13:40:15;;;;;;;0.50;0.40;;;;;14.50;96896.00;;;;5078189;28;20203;-67
2023/05/17 13:43:06;;;;;;;0.30;0.30;;;;;14.60;96894.00;;;;5089687;28;20675;-67
2023/05/17 13:45:57;;;;;;;1.63;0.47;;;;;14.70;96888.00;;;;5085907;28;20204;-67
2023/05/17 13:48:46;;;;;;;0.57;0.40;;;;;14.90;96879.00;;;;5077847;28;20223;-67
2023/05/17 13:51:38;;;;;;;3.07;2.20;;;;;15.00;96890.00;;;;5087771;28;20229;-67
2023/05/17 13:54:27;;;;;;;0.70;0.70;;;;;14.30;96883.00;;;;5080263;28;20199;-67
2023/05/17 13:57:16;;;;;;;0.43;0.43;;;;;14.20;96891.00;;;;5086652;28;20223;-68
2023/05/17 14:00:08;;;;;;;0.80;0.30;;;;;14.40;96897.00;;;;5088012;28;20218;-72
2023/05/17 14:02:57;;;;;;;0.40;0.40;;;;;14.70;96898.00;;;;5085287;28;20196;-67
2023/05/17 14:05:49;;;;;;;0.60;0.60;;;;;14.20;96905.00;;;;5081549;28;20217;-71
2023/05/17 14:08:38;;;;;;;1.27;1.13;;;;;13.90;96899.00;;;;5094685;28;20219;-71
2023/05/17 14:11:27;;;;;;;0.63;0.57;;;;;14.10;96901.00;;;;5090850;28;20226;-68
2023/05/17 14:14:16;;;;;;;0.77;0.70;;;;;14.20;96905.00;;;;5085691;28;20199;-69